Time;durP1;ratioP1;P1;durP2;ratioP2;P2;SDS_P1;SDS_P2;PMS_P1;PMS_P2;Temp;Humidity;BMP_temperature;BMP_pressure;BME280_temperature;BME280_humidity;BME280_pressure;Samples;Min_cycle;Max_cycle;Signal;HPM_P1;HPM_P2
2022/03/25 00:02:23;;;;;;;;;83.25;73.75;13.40;28.40;;;;;;4977746;28;8787;-62
2022/03/25 00:04:50;;;;;;;;;83.00;74.50;13.60;27.90;;;;;;4977930;28;8774;-64
2022/03/25 00:07:16;;;;;;;;;84.50;74.25;13.60;28.10;;;;;;4976933;28;9252;-64
2022/03/25 00:09:42;;;;;;;;;83.75;76.50;13.90;27.60;;;;;;4977851;28;8846;-66
2022/03/25 00:12:08;;;;;;;;;79.00;63.50;14.00;27.40;;;;;;4977561;28;8834;-62
2022/03/25 00:14:34;;;;;;;;;78.25;69.00;14.40;26.80;;;;;;4977414;28;8807;-64
2022/03/25 00:17:00;;;;;;;;;86.00;75.50;14.40;26.70;;;;;;4977545;28;8850;-63
2022/03/25 00:19:26;;;;;;;;;83.00;68.00;13.90;27.30;;;;;;4977390;28;8787;-63
2022/03/25 00:21:52;;;;;;;;;86.50;76.25;14.20;27.10;;;;;;4977288;28;8806;-64
2022/03/25 00:24:18;;;;;;;;;85.75;73.25;14.10;27.10;;;;;;4977875;28;8779;-64
2022/03/25 00:26:44;;;;;;;;;77.50;69.50;14.50;26.60;;;;;;4971026;28;8821;-64
2022/03/25 00:29:10;;;;;;;;;82.50;77.00;15.00;26.20;;;;;;4962468;28;8794;-65
2022/03/25 00:31:36;;;;;;;;;78.50;68.75;14.80;25.80;;;;;;4977478;28;8775;-65
2022/03/25 00:34:01;;;;;;;;;84.25;77.75;14.40;26.50;;;;;;4977198;28;8771;-66
2022/03/25 00:36:27;;;;;;;;;84.25;70.75;14.20;26.70;;;;;;4977079;28;8809;-64
2022/03/25 00:38:53;;;;;;;;;84.00;73.25;14.40;26.50;;;;;;4976936;28;8791;-64
2022/03/25 00:41:19;;;;;;;;;84.75;73.75;14.00;26.90;;;;;;4977019;28;8774;-61
2022/03/25 00:43:46;;;;;;;;;83.75;73.25;13.90;26.90;;;;;;4977028;28;8786;-61
2022/03/25 00:46:13;;;;;;;;;80.75;71.00;13.70;27.40;;;;;;4977169;28;8806;-64
2022/03/25 00:48:39;;;;;;;;;82.25;72.75;13.10;27.80;;;;;;4976977;28;8758;-65
2022/03/25 00:51:06;;;;;;;;;85.25;72.50;13.20;28.20;;;;;;4977052;28;9472;-64
2022/03/25 00:53:32;;;;;;;;;83.75;73.00;13.30;28.30;;;;;;4976817;28;8766;-65
2022/03/25 00:56:01;;;;;;;;;82.00;73.75;12.90;28.60;;;;;;4970198;28;8842;-65
2022/03/25 00:58:27;;;;;;;;;79.50;70.50;13.70;27.70;;;;;;4970947;28;8823;-64
2022/03/25 01:00:53;;;;;;;;;82.00;71.75;13.60;27.50;;;;;;4957279;28;8769;-64
2022/03/25 01:03:20;;;;;;;;;81.75;69.00;13.90;27.30;;;;;;4957482;28;8875;-64
2022/03/25 01:05:46;;;;;;;;;81.75;70.75;14.20;26.90;;;;;;4957260;28;8843;-62
2022/03/25 01:08:12;;;;;;;;;82.50;70.75;14.00;27.40;;;;;;4957079;28;8805;-62
2022/03/25 01:10:38;;;;;;;;;77.75;62.25;13.30;28.10;;;;;;4957085;28;8788;-62
2022/03/25 01:13:05;;;;;;;;;76.75;64.25;13.30;28.10;;;;;;4957083;28;8780;-63
2022/03/25 01:15:31;;;;;;;;;80.50;66.75;13.60;27.80;;;;;;4956983;28;8789;-65
2022/03/25 01:17:57;;;;;;;;;77.25;64.00;13.80;27.50;;;;;;4957274;28;8777;-66
2022/03/25 01:20:23;;;;;;;;;79.00;65.25;13.60;27.80;;;;;;4956949;28;9002;-63
2022/03/25 01:22:49;;;;;;;;;80.50;70.00;13.30;28.30;;;;;;4956890;28;8795;-63
2022/03/25 01:25:16;;;;;;;;;82.50;68.00;14.00;27.70;;;;;;4956807;28;8784;-61
2022/03/25 01:27:43;;;;;;;;;77.50;61.50;14.00;27.20;;;;;;4956790;28;8818;-67
2022/03/25 01:30:10;;;;;;;;;74.75;59.75;13.80;27.40;;;;;;4956777;28;8867;-64
2022/03/25 01:32:37;;;;;;;;;80.00;65.50;13.90;27.20;;;;;;4956992;28;8776;-65
2022/03/25 01:35:06;;;;;;;;;79.00;65.25;13.70;27.30;;;;;;4956910;28;8768;-65
2022/03/25 01:37:32;;;;;;;;;78.75;65.75;13.70;27.40;;;;;;4956647;28;8820;-64
2022/03/25 01:39:58;;;;;;;;;73.00;58.00;14.10;27.20;;;;;;4956538;28;9358;-64
2022/03/25 01:42:32;;;;;;;;;81.25;67.25;14.40;27.00;;;;;;4955829;28;8823;-62
2022/03/25 01:44:58;;;;;;;;;77.00;64.50;14.30;27.10;;;;;;4956502;28;8769;-66
2022/03/25 01:47:28;;;;;;;;;83.50;68.25;14.20;27.30;;;;;;4956523;28;8784;-63
2022/03/25 01:49:55;;;;;;;;;81.25;63.00;14.00;27.30;;;;;;4956463;28;8780;-66
2022/03/25 01:52:21;;;;;;;;;70.50;56.75;13.90;27.70;;;;;;4956477;28;8773;-63
2022/03/25 01:54:47;;;;;;;;;76.25;58.50;14.00;27.00;;;;;;4956397;28;8780;-64
2022/03/25 01:57:13;;;;;;;;;69.50;56.00;14.10;27.20;;;;;;4956348;28;8841;-64
2022/03/25 01:59:39;;;;;;;;;76.75;60.00;14.20;26.70;;;;;;4956825;28;8811;-62
2022/03/25 02:02:07;;;;;;;;;76.25;62.25;14.40;26.60;;;;;;4956432;28;8765;-66
2022/03/25 02:04:33;;;;;;;;;73.50;59.75;14.10;27.30;;;;;;4956504;28;8801;-64
2022/03/25 02:07:00;;;;;;;;;75.25;59.75;14.20;27.30;;;;;;4956287;28;8935;-64
2022/03/25 02:09:26;;;;;;;;;78.25;64.25;14.60;26.80;;;;;;4956553;28;8768;-65
2022/03/25 02:11:52;;;;;;;;;77.00;61.75;14.50;26.70;;;;;;4956209;28;8886;-65
2022/03/25 02:14:18;;;;;;;;;75.25;58.75;14.40;26.90;;;;;;4956410;28;8796;-65
2022/03/25 02:16:46;;;;;;;;;78.00;67.50;14.60;27.30;;;;;;4956367;28;8812;-64
2022/03/25 02:19:14;;;;;;;;;79.75;65.25;14.40;27.50;;;;;;4956402;28;8919;-64
2022/03/25 02:21:41;;;;;;;;;76.00;63.75;14.10;27.90;;;;;;4956108;28;8891;-64
2022/03/25 02:24:09;;;;;;;;;81.25;66.75;14.00;28.00;;;;;;4956119;29;8841;-64
2022/03/25 02:26:36;;;;;;;;;77.25;62.75;14.00;27.80;;;;;;4956288;29;8764;-64
2022/03/25 02:29:08;;;;;;;;;83.50;70.00;14.00;27.70;;;;;;4956359;29;8812;-66
2022/03/25 02:31:34;;;;;;;;;72.50;60.00;14.40;27.80;;;;;;4956058;29;8789;-65
2022/03/25 02:34:06;;;;;;;;;84.00;77.75;14.20;27.90;;;;;;4956167;29;8772;-61
2022/03/25 02:36:36;;;;;;;;;84.75;69.25;14.30;27.60;;;;;;4955935;29;8824;-64
2022/03/25 02:39:05;;;;;;;;;85.50;74.75;14.40;27.10;;;;;;4955866;28;8816;-64
2022/03/25 02:41:31;;;;;;;;;80.75;63.75;14.40;27.40;;;;;;4956222;29;8761;-66
2022/03/25 02:43:59;;;;;;;;;79.50;65.50;14.10;27.80;;;;;;4956180;29;8765;-64
2022/03/25 02:46:25;;;;;;;;;77.50;60.50;14.10;27.90;;;;;;4955885;29;8811;-65
2022/03/25 02:48:52;;;;;;;;;73.00;57.50;14.30;27.50;;;;;;4956127;29;8769;-64
2022/03/25 02:51:17;;;;;;;;;84.25;70.00;14.30;27.70;;;;;;4956073;29;8846;-64
2022/03/25 02:53:43;;;;;;;;;79.00;67.50;14.20;27.50;;;;;;4955864;29;8776;-64
2022/03/25 02:56:09;;;;;;;;;84.00;74.75;13.60;28.50;;;;;;4955675;29;8824;-63
2022/03/25 02:58:35;;;;;;;;;77.75;63.00;13.30;29.10;;;;;;4955830;29;8808;-62
2022/03/25 03:01:01;;;;;;;;;79.25;69.25;13.50;28.50;;;;;;4957773;28;8799;-65
2022/03/25 03:03:26;;;;;;;;;75.50;59.75;13.60;28.80;;;;;;4959374;28;8803;-64
2022/03/25 03:05:53;;;;;;;;;70.25;57.50;13.00;29.60;;;;;;4959615;28;8781;-64
2022/03/25 03:08:19;;;;;;;;;59.50;49.50;13.10;28.30;;;;;;4959585;28;9482;-65
2022/03/25 03:10:44;;;;;;;;;60.50;49.00;12.90;28.80;;;;;;4959369;28;8777;-63
2022/03/25 03:13:10;;;;;;;;;64.00;53.50;13.20;28.30;;;;;;4959325;28;8765;-65
2022/03/25 03:15:37;;;;;;;;;63.50;52.25;13.70;27.50;;;;;;4959512;28;8791;-64
2022/03/25 03:18:03;;;;;;;;;63.25;50.00;13.70;28.00;;;;;;4959223;28;8816;-63
2022/03/25 03:20:30;;;;;;;;;59.75;48.00;14.00;27.50;;;;;;4959390;28;8858;-64
2022/03/25 03:22:57;;;;;;;;;64.00;53.25;13.30;27.40;;;;;;4971370;28;8770;-65
2022/03/25 03:25:23;;;;;;;;;62.50;51.75;13.20;28.20;;;;;;4961911;28;8797;-64
2022/03/25 03:27:49;;;;;;;;;67.50;54.25;13.20;28.00;;;;;;4978316;28;8767;-66
2022/03/25 03:30:15;;;;;;;;;67.00;53.25;12.90;28.90;;;;;;4962132;28;8792;-64
2022/03/25 03:32:41;;;;;;;;;61.00;50.00;13.20;28.40;;;;;;4958981;28;8863;-64
2022/03/25 03:35:08;;;;;;;;;64.25;53.00;13.10;28.30;;;;;;4959207;28;8883;-63
2022/03/25 03:37:45;;;;;;;;;75.50;59.75;13.30;28.20;;;;;;4958780;28;9521;-65
2022/03/25 03:40:12;;;;;;;;;78.00;62.50;12.80;28.90;;;;;;4920954;29;8799;-65
2022/03/25 03:42:38;;;;;;;;;72.75;56.00;12.40;29.90;;;;;;4920855;29;8805;-64
2022/03/25 03:45:07;;;;;;;;;67.50;54.00;12.30;29.70;;;;;;4920788;29;9450;-64
2022/03/25 03:47:33;;;;;;;;;56.75;46.50;12.20;29.70;;;;;;4920765;29;8877;-63
2022/03/25 03:49:59;;;;;;;;;61.50;51.75;12.10;29.40;;;;;;4920507;29;8967;-61
2022/03/25 03:52:25;;;;;;;;;52.00;42.25;12.40;29.90;;;;;;4920589;29;8889;-63
2022/03/25 03:54:51;;;;;;;;;68.25;56.25;12.80;28.80;;;;;;4920670;29;8790;-65
2022/03/25 03:57:17;;;;;;;;;73.00;59.00;12.90;28.60;;;;;;4920438;29;8822;-66
2022/03/25 03:59:42;;;;;;;;;74.75;60.00;13.10;28.30;;;;;;4920533;29;8850;-63
2022/03/25 04:02:09;;;;;;;;;65.50;50.00;12.60;28.80;;;;;;4920243;29;9606;-64
2022/03/25 04:04:35;;;;;;;;;72.25;59.50;12.30;29.20;;;;;;4920247;29;8802;-63
2022/03/25 04:07:01;;;;;;;;;71.75;57.00;11.70;30.10;;;;;;4920113;29;8811;-64
2022/03/25 04:09:27;;;;;;;;;71.25;56.75;11.30;31.50;;;;;;4920161;29;8779;-64
2022/03/25 04:11:53;;;;;;;;;70.75;57.50;11.60;31.00;;;;;;4919759;29;8807;-65
2022/03/25 04:14:20;;;;;;;;;72.50;58.00;12.00;30.40;;;;;;4919980;29;8821;-63
2022/03/25 04:16:46;;;;;;;;;68.00;55.00;12.60;29.80;;;;;;4920130;29;8806;-64
2022/03/25 04:19:13;;;;;;;;;58.25;49.00;12.80;29.40;;;;;;4919949;29;8930;-63
2022/03/25 04:21:39;;;;;;;;;70.75;56.50;13.10;29.00;;;;;;4919863;29;8809;-63
2022/03/25 04:24:05;;;;;;;;;67.50;56.00;12.80;29.20;;;;;;4919806;29;8779;-62
2022/03/25 04:26:31;;;;;;;;;78.00;64.50;13.00;29.50;;;;;;4919944;29;9461;-63
2022/03/25 04:28:57;;;;;;;;;78.00;60.25;12.10;30.00;;;;;;4919816;29;8814;-64
2022/03/25 04:31:23;;;;;;;;;78.00;63.75;12.20;29.70;;;;;;4919865;29;8795;-61
2022/03/25 04:33:48;;;;;;;;;69.00;55.25;12.20;29.90;;;;;;4921641;29;8871;-63
2022/03/25 04:36:14;;;;;;;;;68.50;56.00;11.90;29.90;;;;;;4934453;29;8824;-63
2022/03/25 04:38:41;;;;;;;;;67.25;55.00;11.20;31.00;;;;;;4941767;28;8812;-65
2022/03/25 04:41:10;;;;;;;;;65.00;52.75;11.70;31.00;;;;;;4957759;28;8769;-63
2022/03/25 04:43:39;;;;;;;;;71.25;55.75;11.70;30.30;;;;;;4957811;28;8772;-62
2022/03/25 04:46:06;;;;;;;;;72.75;57.00;11.10;31.80;;;;;;4957719;28;8769;-64
2022/03/25 04:48:33;;;;;;;;;70.50;57.00;10.90;32.10;;;;;;4956179;28;8772;-63
2022/03/25 04:50:59;;;;;;;;;75.25;58.00;11.30;31.30;;;;;;4957597;28;8784;-63
2022/03/25 04:53:26;;;;;;;;;74.25;58.75;11.60;30.70;;;;;;4940468;28;9522;-62
2022/03/25 04:55:53;;;;;;;;;66.50;54.00;11.30;30.90;;;;;;4957775;28;8812;-62
2022/03/25 04:58:19;;;;;;;;;70.00;55.00;11.30;31.30;;;;;;4957449;28;8812;-63
2022/03/25 05:00:44;;;;;;;;;73.75;59.00;10.90;31.40;;;;;;4957363;28;8781;-63
2022/03/25 05:03:11;;;;;;;;;78.25;60.75;10.80;32.50;;;;;;4957441;28;8769;-64
2022/03/25 05:05:37;;;;;;;;;76.50;60.75;10.60;32.40;;;;;;4957290;28;8832;-61
2022/03/25 05:08:03;;;;;;;;;79.00;61.75;11.00;32.60;;;;;;4957204;28;8911;-62
2022/03/25 05:10:29;;;;;;;;;75.00;58.75;11.10;33.20;;;;;;4959576;28;8866;-63
2022/03/25 05:12:55;;;;;;;;;71.50;58.25;11.40;31.30;;;;;;4969126;28;8773;-63
2022/03/25 05:15:21;;;;;;;;;65.50;55.00;11.10;31.50;;;;;;4966715;28;8782;-62
2022/03/25 05:17:53;;;;;;;;;67.75;54.25;11.10;32.10;;;;;;4976645;28;8818;-63
2022/03/25 05:20:22;;;;;;;;;71.00;55.00;10.70;32.60;;;;;;4976737;28;8798;-62
2022/03/25 05:22:49;;;;;;;;;63.50;52.75;10.30;33.50;;;;;;4975596;28;8770;-62
2022/03/25 05:25:16;;;;;;;;;67.50;53.25;10.40;33.80;;;;;;4976384;28;8782;-62
2022/03/25 05:27:48;;;;;;;;;63.00;51.50;10.90;33.10;;;;;;4976254;28;8880;-63
2022/03/25 05:30:15;;;;;;;;;63.25;50.25;11.20;33.70;;;;;;4959108;28;8806;-63
2022/03/25 05:32:42;;;;;;;;;67.75;52.25;11.80;31.30;;;;;;4976205;28;8948;-61
2022/03/25 05:35:09;;;;;;;;;64.75;51.75;12.30;30.60;;;;;;4976435;28;8905;-64
2022/03/25 05:37:39;;;;;;;;;71.75;58.75;12.00;30.30;;;;;;4976187;28;8766;-63
2022/03/25 05:40:06;;;;;;;;;69.50;56.25;11.50;31.20;;;;;;4976084;28;8797;-63
2022/03/25 05:42:33;;;;;;;;;74.25;57.75;11.00;32.20;;;;;;4975976;28;8802;-63
2022/03/25 05:44:59;;;;;;;;;73.25;59.50;10.90;33.40;;;;;;4976026;28;8881;-63
2022/03/25 05:47:25;;;;;;;;;77.00;61.00;11.50;32.20;;;;;;4966076;28;8876;-63
2022/03/25 05:49:51;;;;;;;;;81.50;64.50;12.00;31.20;;;;;;4969374;28;8778;-61
2022/03/25 05:52:17;;;;;;;;;86.00;67.75;12.20;30.80;;;;;;4970397;28;8847;-62
2022/03/25 05:54:43;;;;;;;;;79.50;63.50;12.50;30.30;;;;;;4956622;28;8779;-62
2022/03/25 05:57:09;;;;;;;;;80.75;65.75;12.40;30.30;;;;;;4956516;28;8816;-63
2022/03/25 05:59:35;;;;;;;;;80.25;63.25;12.20;30.60;;;;;;4956786;28;8859;-61
2022/03/25 06:02:00;;;;;;;;;79.50;63.75;12.50;30.50;;;;;;4962534;28;8859;-61
2022/03/25 06:04:26;;;;;;;;;85.25;68.25;12.30;30.90;;;;;;4971056;28;8799;-62
2022/03/25 06:06:52;;;;;;;;;71.00;56.25;12.10;31.40;;;;;;4958550;28;8898;-63
2022/03/25 06:09:18;;;;;;;;;82.75;71.50;11.90;31.00;;;;;;4975824;28;8778;-63
2022/03/25 06:11:44;;;;;;;;;87.75;73.00;11.80;31.60;;;;;;4975761;28;8845;-64
2022/03/25 06:14:10;;;;;;;;;88.00;75.00;12.10;31.20;;;;;;4973933;28;8766;-64
2022/03/25 06:16:35;;;;;;;;;84.50;71.75;11.60;31.60;;;;;;4957898;28;8839;-67
2022/03/25 06:19:01;;;;;;;;;84.50;72.50;11.30;33.10;;;;;;4965668;28;8879;-67
2022/03/25 06:21:27;;;;;;;;;82.00;69.00;11.60;32.10;;;;;;4968724;28;8783;-67
2022/03/25 06:23:53;;;;;;;;;80.50;67.50;11.70;32.30;;;;;;4956308;28;8765;-67
2022/03/25 06:26:19;;;;;;;;;88.50;75.00;11.90;32.00;;;;;;4956039;29;8780;-67
2022/03/25 06:28:45;;;;;;;;;80.50;69.75;12.10;32.00;;;;;;4956153;28;8828;-69
2022/03/25 06:31:10;;;;;;;;;88.25;72.75;12.10;32.00;;;;;;4956088;29;8784;-65
2022/03/25 06:33:37;;;;;;;;;83.50;73.00;12.20;31.80;;;;;;4956363;28;8815;-66
2022/03/25 06:36:04;;;;;;;;;74.25;61.50;12.50;31.50;;;;;;4959737;28;8910;-68
2022/03/25 06:38:30;;;;;;;;;76.75;61.75;12.80;30.90;;;;;;4959755;28;8796;-67
2022/03/25 06:40:56;;;;;;;;;74.00;58.00;12.70;30.80;;;;;;4959828;28;8843;-67
2022/03/25 06:43:21;;;;;;;;;73.25;57.00;11.60;33.20;;;;;;4959820;28;8789;-67
2022/03/25 06:45:47;;;;;;;;;75.00;60.50;11.50;34.30;;;;;;4959744;28;8809;-67
2022/03/25 06:48:13;;;;;;;;;72.50;58.25;11.20;35.30;;;;;;4963832;28;8793;-67
2022/03/25 06:50:39;;;;;;;;;75.00;59.00;11.40;35.40;;;;;;4973983;28;8794;-68
2022/03/25 06:53:06;;;;;;;;;76.50;60.00;11.70;34.50;;;;;;4959780;28;8768;-68
2022/03/25 06:55:32;;;;;;;;;79.00;60.25;12.10;34.10;;;;;;4978100;28;8782;-68
2022/03/25 06:57:58;;;;;;;;;71.50;55.50;12.90;32.60;;;;;;4979204;28;9479;-68
2022/03/25 07:00:24;;;;;;;;;66.00;52.50;12.50;32.50;;;;;;4977522;28;8814;-68
2022/03/25 07:02:51;;;;;;;;;67.00;55.00;12.10;33.60;;;;;;4966870;28;8776;-68
2022/03/25 07:05:17;;;;;;;;;74.50;60.25;11.80;34.70;;;;;;4959553;28;8768;-68
2022/03/25 07:07:44;;;;;;;;;72.00;55.75;12.30;34.50;;;;;;4959815;28;9641;-68
2022/03/25 07:10:11;;;;;;;;;73.00;59.00;12.70;34.10;;;;;;4959570;28;8796;-68
2022/03/25 07:12:39;;;;;;;;;68.25;54.50;13.00;32.90;;;;;;4967501;28;8789;-68
2022/03/25 07:15:07;;;;;;;;;66.25;52.00;13.00;32.20;;;;;;4962106;28;8795;-68
2022/03/25 07:17:33;;;;;;;;;61.75;49.50;13.50;31.50;;;;;;4959273;28;8835;-68
2022/03/25 07:19:59;;;;;;;;;59.00;48.25;13.10;31.90;;;;;;4942316;28;8772;-69
2022/03/25 07:22:25;;;;;;;;;64.25;51.75;13.20;32.10;;;;;;4966360;28;8874;-68
2022/03/25 07:24:50;;;;;;;;;63.25;51.00;13.70;31.50;;;;;;4972531;28;8787;-68
2022/03/25 07:27:16;;;;;;;;;68.50;54.50;14.10;30.70;;;;;;4961369;28;8773;-68
2022/03/25 07:29:42;;;;;;;;;71.00;56.25;13.50;31.80;;;;;;4959557;28;8895;-68
2022/03/25 07:32:08;;;;;;;;;60.00;49.25;13.50;31.90;;;;;;4959353;28;8791;-68
2022/03/25 07:34:36;;;;;;;;;66.75;52.25;13.20;32.40;;;;;;4961447;28;8911;-68
2022/03/25 07:37:03;;;;;;;;;65.50;52.00;13.80;31.70;;;;;;4967819;28;8919;-68
2022/03/25 07:39:33;;;;;;;;;61.00;47.50;13.70;31.90;;;;;;4958954;28;8887;-68
2022/03/25 07:41:59;;;;;;;;;61.50;50.50;13.90;31.70;;;;;;4958994;28;8757;-68
2022/03/25 07:44:24;;;;;;;;;64.75;52.75;14.30;30.60;;;;;;4958926;28;8776;-68
2022/03/25 07:46:50;;;;;;;;;60.25;48.50;14.20;31.70;;;;;;4964742;28;9556;-68
2022/03/25 07:49:16;;;;;;;;;65.50;52.00;14.60;31.20;;;;;;4963010;28;8800;-68
2022/03/25 07:51:42;;;;;;;;;62.25;51.25;14.30;31.40;;;;;;4958702;28;8819;-68
2022/03/25 07:54:08;;;;;;;;;70.00;55.50;14.30;31.50;;;;;;4941662;28;8866;-66
2022/03/25 07:56:34;;;;;;;;;59.75;50.00;14.70;31.50;;;;;;4958590;28;8797;-68
2022/03/25 07:58:59;;;;;;;;;64.75;51.50;15.00;30.40;;;;;;4966485;28;9604;-69
2022/03/25 08:01:29;;;;;;;;;62.25;51.00;15.00;29.80;;;;;;4974995;28;8809;-68
2022/03/25 08:03:55;;;;;;;;;56.25;46.75;14.80;30.10;;;;;;4969157;28;8800;-67
2022/03/25 08:06:22;;;;;;;;;45.50;38.00;15.10;30.20;;;;;;4976374;28;8771;-67
2022/03/25 08:08:49;;;;;;;;;47.50;38.50;15.40;30.30;;;;;;4967846;28;8885;-67
2022/03/25 08:11:18;;;;;;;;;44.50;38.00;15.50;28.50;;;;;;4968060;28;8803;-67
2022/03/25 08:13:44;;;;;;;;;44.75;38.00;15.90;27.80;;;;;;4977584;28;8796;-67
2022/03/25 08:16:10;;;;;;;;;55.00;45.50;16.20;27.70;;;;;;4977656;28;8836;-68
2022/03/25 08:18:36;;;;;;;;;51.50;41.00;16.20;27.70;;;;;;4977370;28;8770;-68
2022/03/25 08:21:02;;;;;;;;;48.00;39.75;15.90;27.50;;;;;;4977498;28;8906;-68
2022/03/25 08:28:59;;;;;;;;;41.50;35.50;16.20;27.30;;;;;;4958219;28;8918;-68
2022/03/25 08:31:25;;;;;;;;;35.50;33.00;16.10;27.40;;;;;;4962053;28;8809;-68
2022/03/25 08:33:51;;;;;;;;;35.50;32.50;16.40;27.00;;;;;;4975222;28;8797;-68
2022/03/25 08:36:18;;;;;;;;;32.00;31.00;16.00;26.30;;;;;;4958010;28;8887;-68
2022/03/25 08:38:44;;;;;;;;;33.50;31.00;15.30;27.30;;;;;;4957861;28;8792;-68
2022/03/25 08:41:11;;;;;;;;;41.00;36.00;15.00;27.80;;;;;;4960616;28;8832;-68
2022/03/25 08:43:37;;;;;;;;;36.75;34.75;15.40;27.90;;;;;;4977378;28;8786;-68
2022/03/25 08:46:03;;;;;;;;;31.50;29.25;15.30;27.90;;;;;;4976999;28;8870;-67
2022/03/25 08:48:30;;;;;;;;;44.00;34.75;15.10;28.30;;;;;;4976950;28;8759;-68
2022/03/25 08:50:55;;;;;;;;;40.50;35.75;15.60;28.40;;;;;;4977052;28;8770;-68
2022/03/25 08:53:21;;;;;;;;;42.75;37.25;15.80;28.40;;;;;;4959697;28;8770;-68
2022/03/25 08:55:47;;;;;;;;;42.25;37.25;15.60;29.60;;;;;;4976739;28;8763;-68
2022/03/25 08:58:13;;;;;;;;;39.75;35.00;15.70;28.90;;;;;;4976945;28;8880;-68
2022/03/25 09:00:39;;;;;;;;;37.50;33.50;16.10;27.60;;;;;;4977096;28;8794;-68
2022/03/25 09:03:05;;;;;;;;;35.25;32.75;15.80;27.90;;;;;;4991704;28;8772;-69
2022/03/25 09:05:31;;;;;;;;;39.50;34.75;15.70;28.40;;;;;;4996213;28;8760;-68
2022/03/25 09:07:57;;;;;;;;;37.50;35.00;15.50;28.50;;;;;;4996022;28;8791;-68
2022/03/25 09:10:23;;;;;;;;;33.25;31.25;15.70;28.20;;;;;;4996028;28;8780;-68
2022/03/25 09:12:49;;;;;;;;;35.75;31.00;15.70;28.20;;;;;;4990219;28;8864;-69
2022/03/25 09:15:15;;;;;;;;;36.00;33.00;16.00;28.10;;;;;;4976881;28;8771;-69
2022/03/25 09:17:44;;;;;;;;;30.00;28.25;15.80;28.50;;;;;;4976534;28;8802;-69
2022/03/25 09:20:10;;;;;;;;;37.50;32.00;16.20;27.60;;;;;;4976448;28;8789;-70
2022/03/25 09:22:36;;;;;;;;;31.50;30.00;16.20;26.80;;;;;;4976699;28;8758;-68
2022/03/25 09:25:04;;;;;;;;;29.00;25.50;16.30;26.90;;;;;;4971360;28;9493;-69
2022/03/25 09:27:30;;;;;;;;;26.67;22.67;16.20;27.50;;;;;;4967093;28;8852;-68
2022/03/25 09:29:56;;;;;;;;;31.00;31.00;16.60;26.70;;;;;;4972326;28;8795;-69
2022/03/25 09:32:22;;;;;;;;;33.33;29.33;17.00;26.50;;;;;;4984120;28;8784;-68
2022/03/25 09:37:38;;;;;;;;;34.75;32.00;16.70;25.90;;;;;;4957076;28;8816;-69
2022/03/25 09:40:07;;;;;;;;;31.00;29.67;16.50;26.90;;;;;;4965960;28;8778;-69
2022/03/25 09:42:36;;;;;;;;;33.00;32.00;16.60;27.50;;;;;;4976089;28;8814;-69
2022/03/25 09:45:04;;;;;;;;;24.00;22.33;17.00;26.70;;;;;;4976260;28;8779;-69
2022/03/25 09:47:33;;;;;;;;;25.00;25.00;17.40;25.50;;;;;;4969436;28;8794;-68
2022/03/25 09:49:59;;;;;;;;;24.67;24.67;17.70;25.40;;;;;;4968394;28;8786;-69
2022/03/25 09:52:29;;;;;;;;;30.00;28.33;17.50;25.30;;;;;;4965637;28;8882;-69
2022/03/25 09:54:54;;;;;;;;;26.00;24.67;17.80;26.70;;;;;;4964852;28;8783;-68
2022/03/25 09:57:20;;;;;;;;;25.33;25.00;17.40;25.50;;;;;;4973118;28;8803;-69
2022/03/25 09:59:46;;;;;;;;;29.00;26.67;17.20;25.90;;;;;;4966395;28;8846;-69
2022/03/25 10:02:12;;;;;;;;;20.67;20.67;17.40;24.90;;;;;;4972851;28;8833;-68
2022/03/25 10:04:38;;;;;;;;;25.67;22.33;17.40;26.20;;;;;;4968471;28;8881;-69
2022/03/25 10:07:20;;;;;;;;;20.67;19.67;17.60;25.50;;;;;;4975545;28;8813;-68
2022/03/25 10:09:48;;;;;;;;;25.00;25.00;17.70;25.00;;;;;;4975264;28;8767;-69
2022/03/25 10:12:34;;;;;;;;;25.00;24.33;17.70;24.90;;;;;;4975358;28;8775;-69
2022/03/25 10:15:21;;;;;;;;;27.33;27.33;17.50;25.50;;;;;;4975726;28;8783;-69
2022/03/25 10:17:51;;;;;;;;;30.33;25.33;17.50;26.80;;;;;;4965360;28;8843;-69
2022/03/25 10:20:19;;;;;;;;;26.67;26.67;17.80;26.30;;;;;;4967456;28;8794;-68
2022/03/25 10:23:15;;;;;;;;;23.33;22.00;17.90;26.00;;;;;;4975270;28;8913;-69
2022/03/25 10:25:48;;;;;;;;;22.67;20.33;18.20;24.80;;;;;;4964493;28;8927;-70
2022/03/25 10:28:31;;;;;;;;;21.67;21.00;18.30;24.50;;;;;;4974407;28;8794;-70
2022/03/25 10:31:04;;;;;;;;;28.67;23.00;18.30;24.40;;;;;;4974949;28;8799;-66
2022/03/25 10:33:32;;;;;;;;;27.67;24.33;18.90;25.00;;;;;;4975356;28;8803;-66
2022/03/25 10:36:07;;;;;;;;;20.67;20.67;19.20;24.90;;;;;;4963741;28;8808;-65
2022/03/25 10:38:41;;;;;;;;;22.00;18.67;18.70;25.00;;;;;;4955952;29;8844;-67
2022/03/25 10:41:08;;;;;;;;;23.00;22.00;19.10;25.30;;;;;;4955969;29;9448;-67
2022/03/25 10:43:35;;;;;;;;;21.33;19.67;19.40;24.20;;;;;;4956172;29;8835;-66
2022/03/25 10:46:01;;;;;;;;;20.67;18.00;19.60;23.60;;;;;;4956139;29;8772;-67
2022/03/25 10:48:26;;;;;;;;;20.33;19.00;19.50;25.40;;;;;;4956192;29;9659;-67
2022/03/25 10:50:57;;;;;;;;;23.00;23.00;19.60;24.40;;;;;;4956169;29;8967;-67
2022/03/25 10:53:24;;;;;;;;;22.33;20.33;19.60;22.70;;;;;;4955886;29;8812;-66
2022/03/25 10:56:03;;;;;;;;;23.67;23.67;19.50;23.50;;;;;;4955885;29;9414;-67
2022/03/25 10:58:29;;;;;;;;;24.00;22.00;19.50;24.40;;;;;;4955942;29;9493;-67
2022/03/25 11:00:56;;;;;;;;;21.33;21.33;19.30;25.30;;;;;;4955995;29;8791;-67
2022/03/25 11:03:23;;;;;;;;;22.33;21.33;19.70;24.60;;;;;;4955787;29;8780;-66
2022/03/25 11:05:49;;;;;;;;;18.33;17.00;19.80;24.50;;;;;;4955955;28;8801;-68
2022/03/25 11:08:16;;;;;;;;;22.67;22.33;20.50;23.90;;;;;;4955694;29;8797;-68
2022/03/25 11:10:42;;;;;;;;;21.33;19.67;21.00;23.50;;;;;;4963531;28;8783;-69
2022/03/25 11:13:08;;;;;;;;;21.33;21.33;21.00;22.10;;;;;;4973810;28;8786;-66
2022/03/25 11:15:36;;;;;;;;;20.67;19.33;21.30;21.90;;;;;;4955869;28;8790;-66
2022/03/25 11:18:02;;;;;;;;;19.33;18.00;21.40;22.40;;;;;;4973239;28;8802;-66
2022/03/25 11:20:29;;;;;;;;;19.67;18.67;21.70;21.90;;;;;;4970908;28;8917;-66
2022/03/25 11:23:08;;;;;;;;;19.00;19.00;22.50;21.10;;;;;;4976384;28;8793;-66
2022/03/25 11:25:40;;;;;;;;;21.33;19.67;23.00;20.70;;;;;;4976708;28;8799;-66
2022/03/25 11:28:16;;;;;;;;;19.33;18.33;22.70;20.40;;;;;;4976463;28;8806;-66
2022/03/25 11:30:42;;;;;;;;;25.33;24.67;22.30;20.10;;;;;;4976073;28;8931;-66
2022/03/25 11:33:09;;;;;;;;;17.33;17.33;22.40;21.60;;;;;;4975118;28;8778;-66
2022/03/25 11:35:41;;;;;;;;;21.00;20.33;22.10;21.30;;;;;;4976656;28;8911;-66
2022/03/25 11:38:20;;;;;;;;;17.67;17.67;21.90;21.80;;;;;;4976597;28;9457;-66
2022/03/25 11:40:48;;;;;;;;;19.67;19.00;22.40;22.40;;;;;;4976629;28;8786;-66
2022/03/25 11:43:18;;;;;;;;;22.00;20.00;22.20;21.30;;;;;;4977030;28;8754;-66
2022/03/25 11:45:56;;;;;;;;;21.67;21.67;22.20;22.60;;;;;;4976897;28;8746;-65
2022/03/25 11:48:24;;;;;;;;;17.00;17.00;23.20;21.00;;;;;;4976810;28;11430;-64
2022/03/25 11:50:51;;;;;;;;;16.75;16.00;24.10;19.40;;;;;;4974696;28;11436;-64
2022/03/25 11:53:22;;;;;;;;;24.00;24.00;25.80;19.30;;;;;;4976693;28;11402;-63
2022/03/25 11:56:09;;;;;;;;;12.33;12.33;28.70;19.60;;;;;;4974058;28;12111;-66
2022/03/25 11:58:55;;;;;;;;;20.00;20.00;31.60;17.70;;;;;;4975004;28;11481;-68
2022/03/25 12:01:22;;;;;;;;;14.33;14.33;32.40;17.00;;;;;;4975269;28;12337;-66
2022/03/25 12:03:50;;;;;;;;;10.25;10.25;32.70;16.10;;;;;;4973553;28;11439;-64
2022/03/25 12:06:17;;;;;;;;;17.75;17.75;32.30;15.40;;;;;;4976580;28;11466;-66
2022/03/25 12:09:05;;;;;;;;;19.33;19.33;32.30;15.70;;;;;;4976400;28;11446;-65
2022/03/25 12:11:55;;;;;;;;;18.50;18.50;31.80;15.80;;;;;;4973808;28;11458;-66
2022/03/25 12:14:31;;;;;;;;;18.33;18.33;31.50;15.70;;;;;;4975358;28;11556;-66
2022/03/25 12:17:02;;;;;;;;;14.00;14.00;31.30;15.60;;;;;;4973646;28;11497;-65
2022/03/25 12:19:30;;;;;;;;;16.25;16.25;31.00;15.30;;;;;;4975992;28;11470;-70
2022/03/25 12:21:57;;;;;;;;;17.00;17.00;29.90;16.30;;;;;;4975564;28;11428;-65
2022/03/25 12:24:24;;;;;;;;;14.25;14.25;29.60;16.40;;;;;;4975644;28;12247;-64
2022/03/25 12:27:02;;;;;;;;;17.00;17.00;29.90;15.80;;;;;;4966464;28;11595;-64
2022/03/25 12:29:29;;;;;;;;;14.75;14.75;29.60;15.80;;;;;;4970044;28;11542;-64
2022/03/25 12:31:57;;;;;;;;;16.00;16.00;30.70;15.70;;;;;;4971674;28;11467;-61
2022/03/25 12:35:01;;;;;;;;;12.50;12.50;30.70;15.20;;;;;;4972461;28;11559;-62
2022/03/25 12:37:46;;;;;;;;;14.50;14.50;30.00;15.20;;;;;;4961444;28;11559;-61
2022/03/25 12:40:17;;;;;;;;;15.75;15.75;31.00;14.90;;;;;;4973350;28;11415;-63
2022/03/25 12:42:47;;;;;;;;;19.00;17.75;30.60;14.50;;;;;;4972134;28;11541;-63
2022/03/25 12:45:12;;;;;;;;;10.00;10.00;30.70;14.60;;;;;;4969366;28;11451;-63
2022/03/25 12:47:46;;;;;;;;;13.75;13.75;30.30;15.30;;;;;;4969840;28;11437;-64